sensor_id;sensor_type;location;lat;lon;timestamp;P1;durP1;ratioP1;P2;durP2;ratioP2
7957;SDS011;4024;52.172;5.378;2023-04-25T00:02:02;13.70;;;5.20;;
7957;SDS011;4024;52.172;5.378;2023-04-25T00:04:28;17.50;;;5.27;;
7957;SDS011;4024;52.172;5.378;2023-04-25T00:06:55;12.13;;;5.17;;
7957;SDS011;4024;52.172;5.378;2023-04-25T00:09:20;18.03;;;5.20;;
7957;SDS011;4024;52.172;5.378;2023-04-25T00:11:47;15.67;;;5.60;;
7957;SDS011;4024;52.172;5.378;2023-04-25T00:14:13;16.47;;;6.20;;
7957;SDS011;4024;52.172;5.378;2023-04-25T00:16:39;17.57;;;5.47;;
7957;SDS011;4024;52.172;5.378;2023-04-25T00:19:06;17.03;;;5.43;;
7957;SDS011;4024;52.172;5.378;2023-04-25T00:21:32;17.13;;;5.40;;
7957;SDS011;4024;52.172;5.378;2023-04-25T00:23:58;16.87;;;5.70;;
7957;SDS011;4024;52.172;5.378;2023-04-25T00:26:25;20.87;;;5.80;;
7957;SDS011;4024;52.172;5.378;2023-04-25T00:28:51;15.60;;;5.27;;
7957;SDS011;4024;52.172;5.378;2023-04-25T00:31:16;14.20;;;5.40;;
7957;SDS011;4024;52.172;5.378;2023-04-25T00:33:42;16.53;;;4.97;;
7957;SDS011;4024;52.172;5.378;2023-04-25T00:36:08;14.37;;;4.80;;
7957;SDS011;4024;52.172;5.378;2023-04-25T00:38:34;15.10;;;4.87;;
7957;SDS011;4024;52.172;5.378;2023-04-25T00:41:00;15.17;;;4.80;;
7957;SDS011;4024;52.172;5.378;2023-04-25T00:43:26;11.67;;;5.10;;
7957;SDS011;4024;52.172;5.378;2023-04-25T00:45:53;15.57;;;4.90;;
7957;SDS011;4024;52.172;5.378;2023-04-25T00:48:21;16.37;;;5.27;;
7957;SDS011;4024;52.172;5.378;2023-04-25T00:50:50;13.53;;;4.57;;
7957;SDS011;4024;52.172;5.378;2023-04-25T00:53:24;14.40;;;5.60;;
7957;SDS011;4024;52.172;5.378;2023-04-25T00:55:50;15.13;;;5.03;;
7957;SDS011;4024;52.172;5.378;2023-04-25T00:58:17;12.80;;;5.20;;
7957;SDS011;4024;52.172;5.378;2023-04-25T01:00:45;16.23;;;4.83;;
7957;SDS011;4024;52.172;5.378;2023-04-25T01:03:11;12.50;;;5.60;;
7957;SDS011;4024;52.172;5.378;2023-04-25T01:05:38;8.77;;;4.33;;
7957;SDS011;4024;52.172;5.378;2023-04-25T01:08:05;12.93;;;4.63;;
7957;SDS011;4024;52.172;5.378;2023-04-25T01:10:31;9.83;;;4.80;;
7957;SDS011;4024;52.172;5.378;2023-04-25T01:12:57;9.13;;;4.47;;
7957;SDS011;4024;52.172;5.378;2023-04-25T01:15:23;15.60;;;5.20;;
7957;SDS011;4024;52.172;5.378;2023-04-25T01:17:48;14.43;;;4.90;;
7957;SDS011;4024;52.172;5.378;2023-04-25T01:20:14;17.10;;;5.33;;
7957;SDS011;4024;52.172;5.378;2023-04-25T01:22:41;16.03;;;5.10;;
7957;SDS011;4024;52.172;5.378;2023-04-25T01:25:07;16.53;;;5.40;;
7957;SDS011;4024;52.172;5.378;2023-04-25T01:27:33;12.90;;;5.07;;
7957;SDS011;4024;52.172;5.378;2023-04-25T01:30:00;15.60;;;4.90;;
7957;SDS011;4024;52.172;5.378;2023-04-25T01:32:26;12.10;;;4.60;;
7957;SDS011;4024;52.172;5.378;2023-04-25T01:34:52;10.40;;;4.87;;
7957;SDS011;4024;52.172;5.378;2023-04-25T01:37:17;17.50;;;5.10;;
7957;SDS011;4024;52.172;5.378;2023-04-25T01:39:43;14.43;;;4.73;;
7957;SDS011;4024;52.172;5.378;2023-04-25T01:42:09;13.53;;;4.40;;
7957;SDS011;4024;52.172;5.378;2023-04-25T01:44:37;10.10;;;5.00;;
7957;SDS011;4024;52.172;5.378;2023-04-25T01:47:03;14.77;;;4.50;;
7957;SDS011;4024;52.172;5.378;2023-04-25T01:49:28;16.37;;;5.17;;
7957;SDS011;4024;52.172;5.378;2023-04-25T01:51:54;12.37;;;4.73;;
7957;SDS011;4024;52.172;5.378;2023-04-25T01:54:20;12.27;;;4.33;;
7957;SDS011;4024;52.172;5.378;2023-04-25T01:56:50;10.87;;;4.77;;
7957;SDS011;4024;52.172;5.378;2023-04-25T01:59:16;13.20;;;4.70;;
7957;SDS011;4024;52.172;5.378;2023-04-25T02:01:43;12.90;;;4.40;;
7957;SDS011;4024;52.172;5.378;2023-04-25T02:04:08;11.07;;;4.33;;
7957;SDS011;4024;52.172;5.378;2023-04-25T02:06:34;12.50;;;4.53;;
7957;SDS011;4024;52.172;5.378;2023-04-25T02:08:59;12.23;;;4.37;;
7957;SDS011;4024;52.172;5.378;2023-04-25T02:11:25;13.47;;;4.60;;
7957;SDS011;4024;52.172;5.378;2023-04-25T02:13:51;16.87;;;4.60;;
7957;SDS011;4024;52.172;5.378;2023-04-25T02:16:22;11.37;;;4.37;;
7957;SDS011;4024;52.172;5.378;2023-04-25T02:18:49;15.50;;;4.73;;
7957;SDS011;4024;52.172;5.378;2023-04-25T02:21:20;10.67;;;4.43;;
7957;SDS011;4024;52.172;5.378;2023-04-25T02:23:46;15.13;;;4.90;;
7957;SDS011;4024;52.172;5.378;2023-04-25T02:26:13;10.90;;;4.63;;
7957;SDS011;4024;52.172;5.378;2023-04-25T02:28:39;16.70;;;4.33;;
7957;SDS011;4024;52.172;5.378;2023-04-25T02:31:05;17.10;;;4.80;;
7957;SDS011;4024;52.172;5.378;2023-04-25T02:33:33;13.33;;;4.30;;
7957;SDS011;4024;52.172;5.378;2023-04-25T02:36:01;9.27;;;4.43;;
7957;SDS011;4024;52.172;5.378;2023-04-25T02:38:30;14.03;;;4.30;;
7957;SDS011;4024;52.172;5.378;2023-04-25T02:40:55;14.10;;;4.50;;
7957;SDS011;4024;52.172;5.378;2023-04-25T02:43:29;11.23;;;4.57;;
7957;SDS011;4024;52.172;5.378;2023-04-25T02:45:56;11.70;;;4.83;;
7957;SDS011;4024;52.172;5.378;2023-04-25T02:48:21;14.00;;;4.53;;
7957;SDS011;4024;52.172;5.378;2023-04-25T02:50:48;14.37;;;4.80;;
7957;SDS011;4024;52.172;5.378;2023-04-25T02:53:14;16.10;;;5.23;;
7957;SDS011;4024;52.172;5.378;2023-04-25T02:55:40;13.87;;;4.80;;
7957;SDS011;4024;52.172;5.378;2023-04-25T02:58:05;14.77;;;4.70;;
7957;SDS011;4024;52.172;5.378;2023-04-25T03:00:31;15.17;;;5.17;;
7957;SDS011;4024;52.172;5.378;2023-04-25T03:02:56;13.53;;;4.90;;
7957;SDS011;4024;52.172;5.378;2023-04-25T03:05:23;18.70;;;5.60;;
7957;SDS011;4024;52.172;5.378;2023-04-25T03:07:49;12.00;;;5.43;;
7957;SDS011;4024;52.172;5.378;2023-04-25T03:10:14;17.80;;;5.30;;
7957;SDS011;4024;52.172;5.378;2023-04-25T03:12:40;14.20;;;5.80;;
7957;SDS011;4024;52.172;5.378;2023-04-25T03:15:06;15.27;;;5.30;;
7957;SDS011;4024;52.172;5.378;2023-04-25T03:17:32;17.67;;;5.73;;
7957;SDS011;4024;52.172;5.378;2023-04-25T03:19:58;11.53;;;5.37;;
7957;SDS011;4024;52.172;5.378;2023-04-25T03:22:24;16.87;;;5.90;;
7957;SDS011;4024;52.172;5.378;2023-04-25T03:24:50;13.97;;;5.17;;
7957;SDS011;4024;52.172;5.378;2023-04-25T03:27:16;17.63;;;5.50;;
7957;SDS011;4024;52.172;5.378;2023-04-25T03:29:42;15.90;;;5.23;;
7957;SDS011;4024;52.172;5.378;2023-04-25T03:32:07;13.10;;;5.47;;
7957;SDS011;4024;52.172;5.378;2023-04-25T03:34:33;13.67;;;5.47;;
7957;SDS011;4024;52.172;5.378;2023-04-25T03:36:59;12.37;;;5.50;;
7957;SDS011;4024;52.172;5.378;2023-04-25T03:39:25;16.57;;;5.80;;
7957;SDS011;4024;52.172;5.378;2023-04-25T03:41:50;9.93;;;5.40;;
7957;SDS011;4024;52.172;5.378;2023-04-25T03:44:16;15.67;;;6.00;;
7957;SDS011;4024;52.172;5.378;2023-04-25T03:46:43;18.10;;;4.93;;
7957;SDS011;4024;52.172;5.378;2023-04-25T03:49:08;20.93;;;5.53;;
7957;SDS011;4024;52.172;5.378;2023-04-25T03:51:34;10.37;;;4.67;;
7957;SDS011;4024;52.172;5.378;2023-04-25T03:54:00;16.37;;;5.73;;
7957;SDS011;4024;52.172;5.378;2023-04-25T03:56:27;11.17;;;4.20;;
7957;SDS011;4024;52.172;5.378;2023-04-25T03:58:52;18.17;;;4.23;;
7957;SDS011;4024;52.172;5.378;2023-04-25T04:01:18;10.93;;;4.17;;
7957;SDS011;4024;52.172;5.378;2023-04-25T04:03:43;13.70;;;4.40;;
7957;SDS011;4024;52.172;5.378;2023-04-25T04:06:09;12.10;;;4.23;;
7957;SDS011;4024;52.172;5.378;2023-04-25T04:08:35;10.07;;;4.03;;
7957;SDS011;4024;52.172;5.378;2023-04-25T04:11:01;10.90;;;3.60;;
7957;SDS011;4024;52.172;5.378;2023-04-25T04:13:27;16.47;;;3.83;;
7957;SDS011;4024;52.172;5.378;2023-04-25T04:15:53;12.83;;;4.03;;
7957;SDS011;4024;52.172;5.378;2023-04-25T04:18:20;14.07;;;3.67;;
7957;SDS011;4024;52.172;5.378;2023-04-25T04:20:46;9.63;;;3.17;;
7957;SDS011;4024;52.172;5.378;2023-04-25T04:23:12;12.37;;;3.77;;
7957;SDS011;4024;52.172;5.378;2023-04-25T04:25:37;8.07;;;3.20;;
7957;SDS011;4024;52.172;5.378;2023-04-25T04:28:04;9.03;;;2.87;;
7957;SDS011;4024;52.172;5.378;2023-04-25T04:30:31;12.23;;;3.80;;
7957;SDS011;4024;52.172;5.378;2023-04-25T04:32:58;10.53;;;3.40;;
7957;SDS011;4024;52.172;5.378;2023-04-25T04:35:24;9.53;;;3.50;;
7957;SDS011;4024;52.172;5.378;2023-04-25T04:37:50;10.47;;;3.30;;
7957;SDS011;4024;52.172;5.378;2023-04-25T04:40:15;8.87;;;2.77;;
7957;SDS011;4024;52.172;5.378;2023-04-25T04:42:42;8.67;;;3.53;;
7957;SDS011;4024;52.172;5.378;2023-04-25T04:45:10;5.87;;;2.77;;
7957;SDS011;4024;52.172;5.378;2023-04-25T04:47:37;9.10;;;3.20;;
7957;SDS011;4024;52.172;5.378;2023-04-25T04:50:04;5.80;;;2.73;;
7957;SDS011;4024;52.172;5.378;2023-04-25T04:52:34;5.93;;;2.77;;
7957;SDS011;4024;52.172;5.378;2023-04-25T04:55:03;7.70;;;2.53;;
7957;SDS011;4024;52.172;5.378;2023-04-25T04:57:30;11.63;;;3.23;;
7957;SDS011;4024;52.172;5.378;2023-04-25T04:59:58;6.50;;;2.40;;
7957;SDS011;4024;52.172;5.378;2023-04-25T05:02:24;6.57;;;2.70;;
7957;SDS011;4024;52.172;5.378;2023-04-25T05:04:49;8.80;;;3.10;;
7957;SDS011;4024;52.172;5.378;2023-04-25T05:07:16;11.13;;;3.20;;
7957;SDS011;4024;52.172;5.378;2023-04-25T05:09:43;7.13;;;3.23;;
7957;SDS011;4024;52.172;5.378;2023-04-25T05:12:09;11.17;;;2.93;;
7957;SDS011;4024;52.172;5.378;2023-04-25T05:14:35;6.77;;;3.30;;
7957;SDS011;4024;52.172;5.378;2023-04-25T05:17:00;5.73;;;2.90;;
7957;SDS011;4024;52.172;5.378;2023-04-25T05:19:26;7.63;;;2.63;;
7957;SDS011;4024;52.172;5.378;2023-04-25T05:21:52;9.13;;;3.33;;
7957;SDS011;4024;52.172;5.378;2023-04-25T05:24:17;9.23;;;3.10;;
7957;SDS011;4024;52.172;5.378;2023-04-25T05:26:43;8.97;;;3.00;;
7957;SDS011;4024;52.172;5.378;2023-04-25T05:29:09;5.83;;;2.73;;
7957;SDS011;4024;52.172;5.378;2023-04-25T05:31:35;10.07;;;3.33;;
7957;SDS011;4024;52.172;5.378;2023-04-25T05:34:01;11.23;;;3.10;;
7957;SDS011;4024;52.172;5.378;2023-04-25T05:36:27;6.63;;;2.90;;
7957;SDS011;4024;52.172;5.378;2023-04-25T05:38:53;5.97;;;2.70;;
7957;SDS011;4024;52.172;5.378;2023-04-25T05:41:18;10.80;;;3.33;;
7957;SDS011;4024;52.172;5.378;2023-04-25T05:43:45;8.33;;;2.63;;
7957;SDS011;4024;52.172;5.378;2023-04-25T05:46:12;6.23;;;3.10;;
7957;SDS011;4024;52.172;5.378;2023-04-25T05:48:39;10.13;;;2.50;;
7957;SDS011;4024;52.172;5.378;2023-04-25T05:51:05;7.67;;;2.90;;
7957;SDS011;4024;52.172;5.378;2023-04-25T05:53:30;6.87;;;2.73;;
7957;SDS011;4024;52.172;5.378;2023-04-25T05:55:56;6.60;;;2.57;;
7957;SDS011;4024;52.172;5.378;2023-04-25T05:58:22;10.33;;;3.03;;
7957;SDS011;4024;52.172;5.378;2023-04-25T06:00:47;7.33;;;2.80;;
7957;SDS011;4024;52.172;5.378;2023-04-25T06:03:13;9.43;;;3.00;;
7957;SDS011;4024;52.172;5.378;2023-04-25T06:05:41;5.07;;;2.57;;
7957;SDS011;4024;52.172;5.378;2023-04-25T06:08:08;5.97;;;2.60;;
7957;SDS011;4024;52.172;5.378;2023-04-25T06:10:33;6.83;;;2.63;;
7957;SDS011;4024;52.172;5.378;2023-04-25T06:12:59;9.33;;;2.73;;
7957;SDS011;4024;52.172;5.378;2023-04-25T06:15:25;6.00;;;2.87;;
7957;SDS011;4024;52.172;5.378;2023-04-25T06:17:50;14.07;;;2.73;;
7957;SDS011;4024;52.172;5.378;2023-04-25T06:20:16;10.93;;;2.77;;
7957;SDS011;4024;52.172;5.378;2023-04-25T06:22:42;8.50;;;3.17;;
7957;SDS011;4024;52.172;5.378;2023-04-25T06:25:07;7.33;;;2.70;;
7957;SDS011;4024;52.172;5.378;2023-04-25T06:27:33;11.83;;;3.10;;
7957;SDS011;4024;52.172;5.378;2023-04-25T06:29:59;11.37;;;2.97;;
7957;SDS011;4024;52.172;5.378;2023-04-25T06:32:24;7.53;;;2.63;;
7957;SDS011;4024;52.172;5.378;2023-04-25T06:34:52;6.43;;;3.13;;
7957;SDS011;4024;52.172;5.378;2023-04-25T06:37:18;10.03;;;3.40;;
7957;SDS011;4024;52.172;5.378;2023-04-25T06:39:44;9.13;;;2.60;;
7957;SDS011;4024;52.172;5.378;2023-04-25T06:42:09;11.13;;;3.63;;
7957;SDS011;4024;52.172;5.378;2023-04-25T06:44:35;9.20;;;3.00;;
7957;SDS011;4024;52.172;5.378;2023-04-25T06:47:01;9.97;;;2.70;;
7957;SDS011;4024;52.172;5.378;2023-04-25T06:49:27;8.87;;;2.70;;
7957;SDS011;4024;52.172;5.378;2023-04-25T06:51:56;7.80;;;2.80;;
7957;SDS011;4024;52.172;5.378;2023-04-25T06:54:21;12.20;;;3.10;;
7957;SDS011;4024;52.172;5.378;2023-04-25T06:56:47;11.77;;;2.90;;
7957;SDS011;4024;52.172;5.378;2023-04-25T06:59:13;9.77;;;3.10;;
7957;SDS011;4024;52.172;5.378;2023-04-25T07:01:38;9.20;;;3.33;;
7957;SDS011;4024;52.172;5.378;2023-04-25T07:04:05;7.13;;;2.73;;
7957;SDS011;4024;52.172;5.378;2023-04-25T07:06:31;8.07;;;2.73;;
7957;SDS011;4024;52.172;5.378;2023-04-25T07:08:58;7.60;;;3.00;;
7957;SDS011;4024;52.172;5.378;2023-04-25T07:11:23;5.50;;;2.27;;
7957;SDS011;4024;52.172;5.378;2023-04-25T07:13:49;5.47;;;2.90;;
7957;SDS011;4024;52.172;5.378;2023-04-25T07:16:15;9.33;;;2.70;;
7957;SDS011;4024;52.172;5.378;2023-04-25T07:18:41;8.23;;;2.93;;
7957;SDS011;4024;52.172;5.378;2023-04-25T07:21:07;6.60;;;2.83;;
7957;SDS011;4024;52.172;5.378;2023-04-25T07:23:32;9.03;;;2.77;;
7957;SDS011;4024;52.172;5.378;2023-04-25T07:25:58;8.13;;;2.37;;
7957;SDS011;4024;52.172;5.378;2023-04-25T07:28:23;11.83;;;2.97;;
7957;SDS011;4024;52.172;5.378;2023-04-25T07:30:49;7.63;;;2.50;;
7957;SDS011;4024;52.172;5.378;2023-04-25T07:33:14;13.70;;;2.77;;
7957;SDS011;4024;52.172;5.378;2023-04-25T07:35:40;9.10;;;3.10;;
7957;SDS011;4024;52.172;5.378;2023-04-25T07:38:06;6.67;;;2.40;;
7957;SDS011;4024;52.172;5.378;2023-04-25T07:40:32;10.20;;;2.50;;
7957;SDS011;4024;52.172;5.378;2023-04-25T07:42:57;6.70;;;2.37;;
7957;SDS011;4024;52.172;5.378;2023-04-25T07:45:23;6.60;;;2.50;;
7957;SDS011;4024;52.172;5.378;2023-04-25T07:47:49;6.60;;;2.67;;
7957;SDS011;4024;52.172;5.378;2023-04-25T07:50:15;9.53;;;2.90;;
7957;SDS011;4024;52.172;5.378;2023-04-25T07:52:40;6.03;;;2.63;;
7957;SDS011;4024;52.172;5.378;2023-04-25T07:55:06;8.87;;;2.97;;
7957;SDS011;4024;52.172;5.378;2023-04-25T07:57:32;8.80;;;3.07;;
7957;SDS011;4024;52.172;5.378;2023-04-25T07:59:57;7.73;;;2.63;;
7957;SDS011;4024;52.172;5.378;2023-04-25T08:02:23;10.47;;;2.90;;
7957;SDS011;4024;52.172;5.378;2023-04-25T08:04:51;11.80;;;2.47;;
7957;SDS011;4024;52.172;5.378;2023-04-25T08:07:16;5.10;;;2.27;;
7957;SDS011;4024;52.172;5.378;2023-04-25T08:09:42;5.87;;;2.50;;
7957;SDS011;4024;52.172;5.378;2023-04-25T08:12:07;7.07;;;2.63;;
7957;SDS011;4024;52.172;5.378;2023-04-25T08:14:33;3.90;;;2.20;;
7957;SDS011;4024;52.172;5.378;2023-04-25T08:17:01;9.13;;;2.40;;
7957;SDS011;4024;52.172;5.378;2023-04-25T08:19:28;6.20;;;2.53;;
7957;SDS011;4024;52.172;5.378;2023-04-25T08:21:55;6.13;;;2.20;;
7957;SDS011;4024;52.172;5.378;2023-04-25T08:24:21;7.57;;;2.30;;
7957;SDS011;4024;52.172;5.378;2023-04-25T08:26:47;7.60;;;2.17;;
7957;SDS011;4024;52.172;5.378;2023-04-25T08:29:13;5.80;;;2.50;;
7957;SDS011;4024;52.172;5.378;2023-04-25T08:31:39;2.47;;;1.90;;
7957;SDS011;4024;52.172;5.378;2023-04-25T08:34:04;3.33;;;1.93;;
7957;SDS011;4024;52.172;5.378;2023-04-25T08:36:30;6.87;;;2.27;;
7957;SDS011;4024;52.172;5.378;2023-04-25T08:38:56;4.13;;;2.07;;
7957;SDS011;4024;52.172;5.378;2023-04-25T08:41:22;5.80;;;2.27;;
7957;SDS011;4024;52.172;5.378;2023-04-25T08:43:49;8.10;;;2.30;;
7957;SDS011;4024;52.172;5.378;2023-04-25T08:46:17;5.33;;;2.57;;
7957;SDS011;4024;52.172;5.378;2023-04-25T08:48:44;5.20;;;2.10;;
7957;SDS011;4024;52.172;5.378;2023-04-25T08:51:15;7.07;;;2.27;;
7957;SDS011;4024;52.172;5.378;2023-04-25T08:53:47;9.93;;;2.27;;
7957;SDS011;4024;52.172;5.378;2023-04-25T08:56:17;7.50;;;2.20;;
7957;SDS011;4024;52.172;5.378;2023-04-25T08:58:43;10.53;;;2.73;;
7957;SDS011;4024;52.172;5.378;2023-04-25T09:01:10;4.83;;;2.30;;
7957;SDS011;4024;52.172;5.378;2023-04-25T09:03:36;7.20;;;2.70;;
7957;SDS011;4024;52.172;5.378;2023-04-25T09:06:02;4.93;;;2.27;;
7957;SDS011;4024;52.172;5.378;2023-04-25T09:08:28;8.63;;;2.67;;
7957;SDS011;4024;52.172;5.378;2023-04-25T09:10:55;6.53;;;2.13;;
7957;SDS011;4024;52.172;5.378;2023-04-25T09:13:24;8.33;;;2.60;;
7957;SDS011;4024;52.172;5.378;2023-04-25T09:15:52;5.33;;;2.27;;
7957;SDS011;4024;52.172;5.378;2023-04-25T09:20:54;6.67;;;2.10;;
7957;SDS011;4024;52.172;5.378;2023-04-25T09:23:22;7.50;;;2.57;;
7957;SDS011;4024;52.172;5.378;2023-04-25T09:25:48;7.20;;;2.13;;
7957;SDS011;4024;52.172;5.378;2023-04-25T09:28:15;6.67;;;2.60;;
7957;SDS011;4024;52.172;5.378;2023-04-25T09:30:41;6.20;;;2.43;;
7957;SDS011;4024;52.172;5.378;2023-04-25T09:33:07;4.10;;;2.07;;
7957;SDS011;4024;52.172;5.378;2023-04-25T09:35:35;5.20;;;2.20;;
7957;SDS011;4024;52.172;5.378;2023-04-25T09:38:11;7.30;;;2.50;;
7957;SDS011;4024;52.172;5.378;2023-04-25T09:40:42;5.30;;;2.03;;
7957;SDS011;4024;52.172;5.378;2023-04-25T09:43:20;5.17;;;2.37;;
7957;SDS011;4024;52.172;5.378;2023-04-25T09:45:47;5.47;;;2.27;;
7957;SDS011;4024;52.172;5.378;2023-04-25T09:48:16;3.83;;;1.90;;
7957;SDS011;4024;52.172;5.378;2023-04-25T09:50:43;6.57;;;1.93;;
7957;SDS011;4024;52.172;5.378;2023-04-25T09:53:09;6.10;;;2.87;;
7957;SDS011;4024;52.172;5.378;2023-04-25T09:55:35;6.33;;;2.27;;
7957;SDS011;4024;52.172;5.378;2023-04-25T09:58:04;4.90;;;1.50;;
7957;SDS011;4024;52.172;5.378;2023-04-25T10:00:34;4.47;;;2.10;;
7957;SDS011;4024;52.172;5.378;2023-04-25T10:03:03;6.73;;;2.13;;
7957;SDS011;4024;52.172;5.378;2023-04-25T10:05:32;4.93;;;2.17;;
7957;SDS011;4024;52.172;5.378;2023-04-25T10:08:02;6.10;;;2.20;;
7957;SDS011;4024;52.172;5.378;2023-04-25T10:10:31;5.80;;;1.80;;
7957;SDS011;4024;52.172;5.378;2023-04-25T10:13:01;6.33;;;2.10;;
7957;SDS011;4024;52.172;5.378;2023-04-25T10:15:28;5.50;;;2.03;;
7957;SDS011;4024;52.172;5.378;2023-04-25T10:17:55;7.57;;;2.70;;
7957;SDS011;4024;52.172;5.378;2023-04-25T10:20:22;6.50;;;2.30;;
7957;SDS011;4024;52.172;5.378;2023-04-25T10:22:48;4.83;;;1.90;;
7957;SDS011;4024;52.172;5.378;2023-04-25T10:25:18;5.00;;;1.93;;
7957;SDS011;4024;52.172;5.378;2023-04-25T10:27:44;5.60;;;1.87;;
7957;SDS011;4024;52.172;5.378;2023-04-25T10:30:13;3.17;;;2.00;;
7957;SDS011;4024;52.172;5.378;2023-04-25T10:32:43;5.37;;;1.83;;
7957;SDS011;4024;52.172;5.378;2023-04-25T10:35:14;5.67;;;2.20;;
7957;SDS011;4024;52.172;5.378;2023-04-25T10:37:57;8.13;;;2.47;;
7957;SDS011;4024;52.172;5.378;2023-04-25T10:40:23;4.97;;;2.10;;
7957;SDS011;4024;52.172;5.378;2023-04-25T10:42:49;4.33;;;2.40;;
7957;SDS011;4024;52.172;5.378;2023-04-25T10:45:18;10.13;;;2.97;;
7957;SDS011;4024;52.172;5.378;2023-04-25T10:47:44;8.57;;;2.30;;
7957;SDS011;4024;52.172;5.378;2023-04-25T10:50:10;4.57;;;2.27;;
7957;SDS011;4024;52.172;5.378;2023-04-25T10:52:38;3.90;;;2.07;;
7957;SDS011;4024;52.172;5.378;2023-04-25T10:55:05;5.90;;;1.90;;
7957;SDS011;4024;52.172;5.378;2023-04-25T10:57:41;4.77;;;2.23;;
7957;SDS011;4024;52.172;5.378;2023-04-25T11:00:16;4.30;;;2.20;;
7957;SDS011;4024;52.172;5.378;2023-04-25T11:02:47;9.60;;;2.40;;
7957;SDS011;4024;52.172;5.378;2023-04-25T11:05:23;6.30;;;2.10;;
7957;SDS011;4024;52.172;5.378;2023-04-25T11:07:59;5.13;;;2.30;;
7957;SDS011;4024;52.172;5.378;2023-04-25T11:10:25;7.83;;;2.30;;
7957;SDS011;4024;52.172;5.378;2023-04-25T11:12:52;6.50;;;2.33;;
7957;SDS011;4024;52.172;5.378;2023-04-25T11:15:17;4.90;;;2.33;;
7957;SDS011;4024;52.172;5.378;2023-04-25T11:17:43;4.83;;;2.87;;
7957;SDS011;4024;52.172;5.378;2023-04-25T11:20:11;4.20;;;2.70;;
7957;SDS011;4024;52.172;5.378;2023-04-25T11:22:39;5.53;;;2.43;;
7957;SDS011;4024;52.172;5.378;2023-04-25T11:25:06;6.67;;;2.70;;
7957;SDS011;4024;52.172;5.378;2023-04-25T11:27:33;5.67;;;2.30;;
7957;SDS011;4024;52.172;5.378;2023-04-25T11:30:09;5.23;;;2.43;;
7957;SDS011;4024;52.172;5.378;2023-04-25T11:32:36;4.50;;;2.20;;
7957;SDS011;4024;52.172;5.378;2023-04-25T11:35:01;4.53;;;2.40;;
7957;SDS011;4024;52.172;5.378;2023-04-25T11:37:27;7.17;;;2.77;;
7957;SDS011;4024;52.172;5.378;2023-04-25T11:39:53;6.63;;;2.43;;
7957;SDS011;4024;52.172;5.378;2023-04-25T11:42:19;5.30;;;2.10;;
7957;SDS011;4024;52.172;5.378;2023-04-25T11:44:45;5.50;;;2.40;;
7957;SDS011;4024;52.172;5.378;2023-04-25T11:47:11;6.37;;;2.20;;
7957;SDS011;4024;52.172;5.378;2023-04-25T11:49:36;4.90;;;2.10;;
7957;SDS011;4024;52.172;5.378;2023-04-25T11:52:02;4.60;;;2.00;;
7957;SDS011;4024;52.172;5.378;2023-04-25T11:54:28;4.27;;;2.40;;
7957;SDS011;4024;52.172;5.378;2023-04-25T11:56:53;5.63;;;2.73;;
7957;SDS011;4024;52.172;5.378;2023-04-25T11:59:23;7.60;;;2.37;;
7957;SDS011;4024;52.172;5.378;2023-04-25T12:01:50;5.73;;;1.87;;
7957;SDS011;4024;52.172;5.378;2023-04-25T12:04:17;7.97;;;2.40;;
7957;SDS011;4024;52.172;5.378;2023-04-25T12:06:44;4.20;;;1.83;;
7957;SDS011;4024;52.172;5.378;2023-04-25T12:09:12;7.67;;;2.70;;
7957;SDS011;4024;52.172;5.378;2023-04-25T12:11:41;6.53;;;2.27;;
7957;SDS011;4024;52.172;5.378;2023-04-25T12:14:11;6.40;;;2.23;;
7957;SDS011;4024;52.172;5.378;2023-04-25T12:16:40;6.07;;;2.10;;
7957;SDS011;4024;52.172;5.378;2023-04-25T12:19:07;5.00;;;2.40;;
7957;SDS011;4024;52.172;5.378;2023-04-25T12:21:33;4.57;;;2.10;;
7957;SDS011;4024;52.172;5.378;2023-04-25T12:24:12;6.03;;;1.93;;
7957;SDS011;4024;52.172;5.378;2023-04-25T12:26:49;5.37;;;2.13;;
7957;SDS011;4024;52.172;5.378;2023-04-25T12:29:24;4.87;;;2.10;;
7957;SDS011;4024;52.172;5.378;2023-04-25T12:31:51;5.03;;;2.07;;
7957;SDS011;4024;52.172;5.378;2023-04-25T12:34:18;6.03;;;2.10;;
7957;SDS011;4024;52.172;5.378;2023-04-25T12:36:44;5.17;;;2.13;;
7957;SDS011;4024;52.172;5.378;2023-04-25T12:39:29;8.00;;;2.10;;
7957;SDS011;4024;52.172;5.378;2023-04-25T12:41:54;4.30;;;2.13;;
7957;SDS011;4024;52.172;5.378;2023-04-25T12:44:20;5.93;;;2.00;;
7957;SDS011;4024;52.172;5.378;2023-04-25T12:46:46;6.67;;;2.10;;
7957;SDS011;4024;52.172;5.378;2023-04-25T12:49:12;6.00;;;2.10;;
7957;SDS011;4024;52.172;5.378;2023-04-25T12:51:38;4.33;;;2.30;;
7957;SDS011;4024;52.172;5.378;2023-04-25T12:54:05;5.30;;;1.80;;
7957;SDS011;4024;52.172;5.378;2023-04-25T12:56:32;7.93;;;2.53;;
7957;SDS011;4024;52.172;5.378;2023-04-25T12:58:57;4.47;;;1.90;;
7957;SDS011;4024;52.172;5.378;2023-04-25T13:01:24;3.53;;;1.70;;
7957;SDS011;4024;52.172;5.378;2023-04-25T13:03:50;5.23;;;2.33;;
7957;SDS011;4024;52.172;5.378;2023-04-25T13:06:16;7.57;;;2.23;;
7957;SDS011;4024;52.172;5.378;2023-04-25T13:08:43;6.30;;;2.53;;
7957;SDS011;4024;52.172;5.378;2023-04-25T13:11:09;4.67;;;2.10;;
7957;SDS011;4024;52.172;5.378;2023-04-25T13:13:36;4.50;;;2.13;;
7957;SDS011;4024;52.172;5.378;2023-04-25T13:16:02;4.77;;;2.10;;
7957;SDS011;4024;52.172;5.378;2023-04-25T13:18:31;6.43;;;2.17;;
7957;SDS011;4024;52.172;5.378;2023-04-25T13:20:57;5.23;;;2.13;;
7957;SDS011;4024;52.172;5.378;2023-04-25T13:23:24;5.53;;;2.00;;
7957;SDS011;4024;52.172;5.378;2023-04-25T13:25:51;5.20;;;2.50;;
7957;SDS011;4024;52.172;5.378;2023-04-25T13:28:17;6.60;;;2.33;;
7957;SDS011;4024;52.172;5.378;2023-04-25T13:30:43;5.03;;;2.00;;
7957;SDS011;4024;52.172;5.378;2023-04-25T13:33:09;4.43;;;1.80;;
7957;SDS011;4024;52.172;5.378;2023-04-25T13:35:35;7.43;;;2.40;;
7957;SDS011;4024;52.172;5.378;2023-04-25T13:38:02;4.73;;;2.10;;
7957;SDS011;4024;52.172;5.378;2023-04-25T13:40:27;5.73;;;2.17;;
7957;SDS011;4024;52.172;5.378;2023-04-25T13:42:53;6.17;;;2.40;;
7957;SDS011;4024;52.172;5.378;2023-04-25T13:45:19;3.40;;;2.00;;
7957;SDS011;4024;52.172;5.378;2023-04-25T13:47:45;7.90;;;2.50;;
7957;SDS011;4024;52.172;5.378;2023-04-25T13:50:11;5.17;;;1.83;;
7957;SDS011;4024;52.172;5.378;2023-04-25T13:52:37;7.53;;;2.30;;
7957;SDS011;4024;52.172;5.378;2023-04-25T13:55:02;4.87;;;1.93;;
7957;SDS011;4024;52.172;5.378;2023-04-25T13:57:30;4.70;;;2.27;;
7957;SDS011;4024;52.172;5.378;2023-04-25T13:59:56;4.63;;;2.30;;
7957;SDS011;4024;52.172;5.378;2023-04-25T14:02:21;2.90;;;1.80;;
7957;SDS011;4024;52.172;5.378;2023-04-25T14:04:48;5.23;;;2.23;;
7957;SDS011;4024;52.172;5.378;2023-04-25T14:07:14;4.53;;;2.30;;
7957;SDS011;4024;52.172;5.378;2023-04-25T14:09:42;5.43;;;2.00;;
7957;SDS011;4024;52.172;5.378;2023-04-25T14:12:08;4.47;;;2.33;;
7957;SDS011;4024;52.172;5.378;2023-04-25T14:14:34;5.83;;;2.23;;
7957;SDS011;4024;52.172;5.378;2023-04-25T14:16:59;4.53;;;1.90;;
7957;SDS011;4024;52.172;5.378;2023-04-25T14:19:25;4.63;;;2.00;;
7957;SDS011;4024;52.172;5.378;2023-04-25T14:21:51;6.23;;;2.17;;
7957;SDS011;4024;52.172;5.378;2023-04-25T14:24:16;4.37;;;2.03;;
7957;SDS011;4024;52.172;5.378;2023-04-25T14:26:42;4.10;;;2.17;;
7957;SDS011;4024;52.172;5.378;2023-04-25T14:29:08;4.40;;;2.10;;
7957;SDS011;4024;52.172;5.378;2023-04-25T14:31:36;3.33;;;2.07;;
7957;SDS011;4024;52.172;5.378;2023-04-25T14:34:02;5.03;;;1.97;;
7957;SDS011;4024;52.172;5.378;2023-04-25T14:36:28;2.53;;;1.93;;
7957;SDS011;4024;52.172;5.378;2023-04-25T14:38:54;3.60;;;1.80;;
7957;SDS011;4024;52.172;5.378;2023-04-25T14:41:20;3.50;;;1.77;;
7957;SDS011;4024;52.172;5.378;2023-04-25T14:43:46;4.27;;;2.07;;
7957;SDS011;4024;52.172;5.378;2023-04-25T14:46:11;3.63;;;2.20;;
7957;SDS011;4024;52.172;5.378;2023-04-25T14:48:37;3.43;;;2.03;;
7957;SDS011;4024;52.172;5.378;2023-04-25T14:51:03;5.83;;;2.33;;
7957;SDS011;4024;52.172;5.378;2023-04-25T14:53:29;3.97;;;2.10;;
7957;SDS011;4024;52.172;5.378;2023-04-25T14:55:55;5.30;;;1.93;;
7957;SDS011;4024;52.172;5.378;2023-04-25T14:58:21;5.37;;;1.93;;
7957;SDS011;4024;52.172;5.378;2023-04-25T15:00:46;3.83;;;1.97;;
7957;SDS011;4024;52.172;5.378;2023-04-25T15:03:12;3.03;;;2.33;;
7957;SDS011;4024;52.172;5.378;2023-04-25T15:05:38;3.63;;;2.10;;
7957;SDS011;4024;52.172;5.378;2023-04-25T15:08:05;2.60;;;1.63;;
7957;SDS011;4024;52.172;5.378;2023-04-25T15:10:31;3.67;;;2.07;;